createdAt,value
2024-04-25T00:00:20.218Z,89.000000
2024-04-25T00:01:19.425Z,89.000000
2024-04-25T00:02:19.613Z,89.000000
2024-04-25T00:03:19.568Z,89.000000
2024-04-25T00:04:19.601Z,88.000000
2024-04-25T00:05:19.698Z,89.000000
2024-04-25T00:06:19.696Z,88.000000
2024-04-25T00:07:19.111Z,88.000000
2024-04-25T00:08:19.364Z,88.000000
2024-04-25T00:09:19.203Z,88.000000
2024-04-25T00:10:19.330Z,88.000000
2024-04-25T00:11:19.506Z,88.000000
2024-04-25T00:12:19.434Z,88.000000
2024-04-25T00:13:19.470Z,88.000000
2024-04-25T00:14:19.444Z,88.000000
2024-04-25T00:15:19.588Z,88.000000
2024-04-25T00:16:19.623Z,88.000000
2024-04-25T00:17:19.674Z,88.000000
2024-04-25T00:18:19.797Z,88.000000
2024-04-25T00:19:19.143Z,88.000000
2024-04-25T00:20:19.333Z,88.000000
2024-04-25T00:21:19.317Z,88.000000
2024-04-25T00:22:19.623Z,88.000000
2024-04-25T00:23:19.406Z,88.000000
2024-04-25T00:24:19.463Z,88.000000
2024-04-25T00:25:19.540Z,88.000000
2024-04-25T00:26:19.537Z,88.000000
2024-04-25T00:27:19.673Z,88.000000
2024-04-25T00:28:19.641Z,88.000000
2024-04-25T00:29:20.926Z,88.000000
2024-04-25T00:30:19.827Z,88.000000
2024-04-25T00:31:19.359Z,88.000000
2024-04-25T00:32:19.864Z,88.000000
2024-04-25T00:33:19.524Z,88.000000
2024-04-25T00:34:19.457Z,88.000000
2024-04-25T00:35:19.518Z,88.000000
2024-04-25T00:36:19.501Z,88.000000
2024-04-25T00:37:19.569Z,88.000000
2024-04-25T00:38:19.625Z,88.000000
2024-04-25T00:39:19.697Z,88.000000
2024-04-25T00:40:19.712Z,88.000000
2024-04-25T00:41:19.711Z,88.000000
2024-04-25T00:42:19.154Z,88.000000
2024-04-25T00:43:19.321Z,88.000000
2024-04-25T00:44:19.326Z,88.000000
2024-04-25T00:45:19.430Z,88.000000
2024-04-25T00:46:19.452Z,88.000000
2024-04-25T00:47:19.686Z,88.000000
2024-04-25T00:48:19.708Z,88.000000
2024-04-25T00:49:19.509Z,88.000000
2024-04-25T00:50:19.722Z,88.000000
2024-04-25T00:51:19.588Z,88.000000
2024-04-25T00:52:20.342Z,88.000000
2024-04-25T00:53:19.644Z,88.000000
2024-04-25T00:54:19.831Z,88.000000
2024-04-25T00:55:19.252Z,88.000000
2024-04-25T00:56:19.457Z,88.000000
2024-04-25T00:57:19.432Z,88.000000
2024-04-25T00:58:19.494Z,88.000000
2024-04-25T00:59:19.657Z,88.000000
2024-04-25T01:00:19.561Z,88.000000
2024-04-25T01:01:19.663Z,88.000000
2024-04-25T01:02:19.807Z,88.000000
2024-04-25T01:03:19.811Z,88.000000
2024-04-25T01:04:19.814Z,88.000000
2024-04-25T01:05:19.857Z,88.000000
2024-04-25T01:06:19.606Z,88.000000
2024-04-25T01:07:19.333Z,88.000000
2024-04-25T01:08:19.495Z,88.000000
2024-04-25T01:09:19.466Z,88.000000
2024-04-25T01:10:19.518Z,88.000000
2024-04-25T01:11:19.808Z,88.000000
2024-04-25T01:12:19.598Z,88.000000
2024-04-25T01:13:19.676Z,88.000000
2024-04-25T01:14:19.774Z,88.000000
2024-04-25T01:15:19.743Z,88.000000
2024-04-25T01:16:19.784Z,88.000000
2024-04-25T01:17:19.890Z,88.000000
2024-04-25T01:18:19.446Z,88.000000
2024-04-25T01:19:19.491Z,88.000000
2024-04-25T01:20:19.486Z,88.000000
2024-04-25T01:21:19.484Z,88.000000
2024-04-25T01:22:19.553Z,88.000000
2024-04-25T01:23:19.601Z,88.000000
2024-04-25T01:24:19.637Z,88.000000
2024-04-25T01:25:19.756Z,88.000000
2024-04-25T01:26:19.714Z,88.000000
2024-04-25T01:27:19.795Z,88.000000
2024-04-25T01:28:19.280Z,88.000000
2024-04-25T01:29:19.452Z,88.000000
2024-04-25T01:30:19.306Z,88.000000
2024-04-25T01:31:19.454Z,88.000000
2024-04-25T01:32:19.645Z,88.000000
2024-04-25T01:33:19.704Z,88.000000
2024-04-25T01:34:19.587Z,88.000000
2024-04-25T01:35:19.690Z,88.000000
2024-04-25T01:36:19.675Z,88.000000
2024-04-25T01:37:19.831Z,88.000000
2024-04-25T01:38:19.755Z,88.000000
2024-04-25T01:39:20.405Z,88.000000
2024-04-25T01:40:19.866Z,88.000000
2024-04-25T01:41:19.515Z,88.000000
2024-04-25T01:42:19.442Z,88.000000
2024-04-25T01:43:19.547Z,88.000000
2024-04-25T01:44:19.591Z,88.000000
2024-04-25T01:45:19.685Z,88.000000
2024-04-25T01:46:19.632Z,88.000000
2024-04-25T01:47:19.688Z,88.000000
2024-04-25T01:48:19.889Z,88.000000
2024-04-25T01:49:19.856Z,88.000000
2024-04-25T01:50:19.810Z,88.000000
2024-04-25T01:51:20.611Z,88.000000
2024-04-25T01:52:19.893Z,88.000000
2024-04-25T01:53:19.434Z,88.000000
2024-04-25T01:54:19.925Z,88.000000
2024-04-25T01:55:19.554Z,88.000000
2024-04-25T01:56:19.738Z,88.000000
2024-04-25T01:57:19.663Z,88.000000
2024-04-25T01:58:19.695Z,88.000000
2024-04-25T01:59:19.764Z,88.000000
2024-04-25T02:00:19.820Z,88.000000
2024-04-25T02:01:19.833Z,88.000000
2024-04-25T02:02:19.960Z,88.000000
2024-04-25T02:03:19.966Z,88.000000
2024-04-25T02:04:19.306Z,88.000000
2024-04-25T02:05:20.299Z,88.000000
2024-04-25T02:06:20.060Z,88.000000
2024-04-25T02:07:19.558Z,88.000000
2024-04-25T02:08:19.718Z,88.000000
2024-04-25T02:09:19.706Z,88.000000
2024-04-25T02:10:20.059Z,88.000000
2024-04-25T02:11:19.770Z,88.000000
2024-04-25T02:12:21.758Z,88.000000
2024-04-25T02:13:19.847Z,88.000000
2024-04-25T02:14:19.861Z,88.000000
2024-04-25T02:15:19.946Z,88.000000
2024-04-25T02:16:19.532Z,88.000000
2024-04-25T02:17:19.586Z,88.000000
2024-04-25T02:18:21.271Z,88.000000
2024-04-25T02:19:19.609Z,88.000000
2024-04-25T02:20:19.856Z,88.000000
2024-04-25T02:21:19.679Z,88.000000
2024-04-25T02:22:19.764Z,88.000000
2024-04-25T02:23:19.831Z,88.000000
2024-04-25T02:24:19.862Z,88.000000
2024-04-25T02:25:19.836Z,88.000000
2024-04-25T02:26:20.054Z,89.000000
2024-04-25T02:27:19.588Z,89.000000
2024-04-25T02:28:19.474Z,89.000000
2024-04-25T02:29:19.631Z,89.000000
2024-04-25T02:30:19.599Z,89.000000
2024-04-25T02:31:19.628Z,89.000000
2024-04-25T02:32:19.826Z,89.000000
2024-04-25T02:33:19.842Z,89.000000
2024-04-25T02:34:19.806Z,89.000000
2024-04-25T02:35:19.996Z,88.000000
2024-04-25T02:36:19.870Z,88.000000
2024-04-25T02:37:19.858Z,88.000000
2024-04-25T02:38:20.104Z,88.000000
2024-04-25T02:39:19.531Z,88.000000
2024-04-25T02:40:19.516Z,88.000000
2024-04-25T02:41:19.585Z,88.000000
2024-04-25T02:42:19.626Z,88.000000
2024-04-25T02:43:21.633Z,88.000000
2024-04-25T02:44:19.820Z,88.000000
2024-04-25T02:45:19.780Z,88.000000
2024-04-25T02:46:19.958Z,88.000000
2024-04-25T02:47:19.917Z,88.000000
2024-04-25T02:48:20.194Z,88.000000
2024-04-25T02:49:19.954Z,88.000000
2024-04-25T02:50:19.522Z,88.000000
2024-04-25T02:51:19.688Z,88.000000
2024-04-25T02:52:19.509Z,88.000000
2024-04-25T02:53:19.724Z,88.000000
2024-04-25T02:54:19.666Z,88.000000
2024-04-25T02:55:19.691Z,88.000000
2024-04-25T02:56:19.832Z,88.000000
2024-04-25T02:57:19.795Z,88.000000
2024-04-25T02:58:19.881Z,88.000000
2024-04-25T02:59:21.033Z,88.000000
2024-04-25T03:00:19.905Z,88.000000
2024-04-25T03:01:20.021Z,88.000000
2024-04-25T03:02:20.080Z,89.000000
2024-04-25T03:03:19.761Z,89.000000
2024-04-25T03:04:19.710Z,89.000000
2024-04-25T03:05:19.805Z,89.000000
2024-04-25T03:06:19.728Z,89.000000
2024-04-25T03:07:19.760Z,89.000000
2024-04-25T03:08:19.922Z,89.000000
2024-04-25T03:09:19.836Z,89.000000
2024-04-25T03:10:19.878Z,89.000000
2024-04-25T03:11:20.072Z,89.000000
2024-04-25T03:12:20.093Z,89.000000
2024-04-25T03:13:19.995Z,89.000000
2024-04-25T03:14:19.562Z,89.000000
2024-04-25T03:15:19.642Z,89.000000
2024-04-25T03:16:20.142Z,89.000000
2024-04-25T03:17:19.782Z,89.000000
2024-04-25T03:18:19.875Z,89.000000
2024-04-25T03:19:19.925Z,89.000000
2024-04-25T03:20:19.918Z,89.000000
2024-04-25T03:21:19.872Z,89.000000
2024-04-25T03:22:19.935Z,89.000000
2024-04-25T03:23:20.021Z,89.000000
2024-04-25T03:24:29.760Z,89.000000
2024-04-25T03:25:18.321Z,89.000000
2024-04-25T03:26:20.002Z,90.000000
2024-04-25T03:27:19.849Z,90.000000
2024-04-25T03:28:19.943Z,90.000000
2024-04-25T03:29:20.065Z,90.000000
2024-04-25T03:30:19.995Z,90.000000
2024-04-25T03:31:21.695Z,90.000000
2024-04-25T03:32:19.688Z,90.000000
2024-04-25T03:33:19.932Z,89.000000
2024-04-25T03:34:19.758Z,89.000000
2024-04-25T03:35:19.876Z,89.000000
2024-04-25T03:36:19.802Z,89.000000
2024-04-25T03:37:19.865Z,89.000000
2024-04-25T03:38:19.907Z,89.000000
2024-04-25T03:39:19.964Z,89.000000
2024-04-25T03:40:20.529Z,89.000000
2024-04-25T03:41:20.093Z,89.000000
2024-04-25T03:42:20.087Z,89.000000
2024-04-25T03:43:19.598Z,89.000000
2024-04-25T03:44:20.391Z,89.000000
2024-04-25T03:45:19.655Z,89.000000
2024-04-25T03:46:19.849Z,89.000000
2024-04-25T03:47:19.930Z,89.000000
2024-04-25T03:48:22.652Z,89.000000
2024-04-25T03:49:19.953Z,89.000000
2024-04-25T03:50:19.976Z,89.000000
2024-04-25T03:51:19.950Z,89.000000
2024-04-25T03:52:20.015Z,89.000000
2024-04-25T03:53:20.129Z,89.000000
2024-04-25T03:54:20.169Z,89.000000
2024-04-25T03:55:19.638Z,89.000000
2024-04-25T03:56:19.770Z,89.000000
2024-04-25T03:57:19.815Z,89.000000
2024-04-25T03:58:19.758Z,89.000000
2024-04-25T03:59:19.876Z,89.000000
2024-04-25T04:00:19.967Z,89.000000
2024-04-25T04:01:19.962Z,89.000000
2024-04-25T04:02:20.074Z,89.000000
2024-04-25T04:03:20.107Z,89.000000
2024-04-25T04:04:20.067Z,89.000000
2024-04-25T04:05:20.160Z,89.000000
2024-04-25T04:06:19.650Z,89.000000
2024-04-25T04:07:19.697Z,89.000000
2024-04-25T04:08:19.761Z,89.000000
2024-04-25T04:09:19.809Z,89.000000
2024-04-25T04:10:19.907Z,89.000000
2024-04-25T04:11:20.090Z,89.000000
2024-04-25T04:12:19.884Z,89.000000
2024-04-25T04:13:19.931Z,89.000000
2024-04-25T04:14:20.044Z,89.000000
2024-04-25T04:15:21.137Z,89.000000
2024-04-25T04:16:20.114Z,89.000000
2024-04-25T04:17:20.217Z,89.000000
2024-04-25T04:18:19.738Z,89.000000
2024-04-25T04:19:19.767Z,89.000000
2024-04-25T04:20:19.777Z,89.000000
2024-04-25T04:21:19.810Z,89.000000
2024-04-25T04:22:20.160Z,89.000000
2024-04-25T04:23:19.690Z,89.000000
2024-04-25T04:24:20.188Z,89.000000
2024-04-25T04:25:19.900Z,89.000000
2024-04-25T04:26:19.907Z,89.000000
2024-04-25T04:27:19.840Z,89.000000
2024-04-25T04:28:19.942Z,89.000000
2024-04-25T04:29:19.941Z,89.000000
2024-04-25T04:30:19.998Z,89.000000
2024-04-25T04:31:20.080Z,89.000000
2024-04-25T04:32:20.293Z,89.000000
2024-04-25T04:33:20.687Z,89.000000
2024-04-25T04:34:19.604Z,89.000000
2024-04-25T04:35:20.262Z,89.000000
2024-04-25T04:36:19.799Z,89.000000
2024-04-25T04:37:19.849Z,89.000000
2024-04-25T04:38:19.913Z,89.000000
2024-04-25T04:39:19.865Z,89.000000
2024-04-25T04:40:19.988Z,89.000000
2024-04-25T04:41:20.050Z,89.000000
2024-04-25T04:42:20.041Z,89.000000
2024-04-25T04:43:20.062Z,89.000000
2024-04-25T04:44:20.445Z,89.000000
2024-04-25T04:45:20.207Z,89.000000
2024-04-25T04:46:20.244Z,89.000000
2024-04-25T04:47:19.843Z,89.000000
2024-04-25T04:48:26.880Z,89.000000
2024-04-25T04:49:19.983Z,89.000000
2024-04-25T04:50:19.966Z,89.000000
2024-04-25T04:51:20.067Z,89.000000
2024-04-25T04:52:19.972Z,89.000000
2024-04-25T04:53:20.099Z,89.000000
2024-04-25T04:54:20.027Z,89.000000
2024-04-25T04:55:20.114Z,89.000000
2024-04-25T04:56:20.254Z,89.000000
2024-04-25T04:57:20.177Z,89.000000
2024-04-25T04:58:20.258Z,89.000000
2024-04-25T04:59:20.335Z,90.000000
2024-04-25T05:00:19.892Z,89.000000
2024-04-25T05:01:19.893Z,89.000000
2024-04-25T05:02:20.533Z,90.000000
2024-04-25T05:03:20.110Z,90.000000
2024-04-25T05:04:20.008Z,90.000000
2024-04-25T05:05:20.081Z,90.000000
2024-04-25T05:06:20.059Z,90.000000
2024-04-25T05:07:20.151Z,90.000000
2024-04-25T05:08:20.291Z,90.000000
2024-04-25T05:09:20.250Z,90.000000
2024-04-25T05:10:20.330Z,91.000000
2024-04-25T05:11:20.025Z,91.000000
2024-04-25T05:12:19.894Z,91.000000
2024-04-25T05:13:19.908Z,91.000000
2024-04-25T05:14:20.455Z,91.000000
2024-04-25T05:15:20.074Z,91.000000
2024-04-25T05:16:20.127Z,91.000000
2024-04-25T05:17:20.065Z,91.000000
2024-04-25T05:18:20.193Z,91.000000
2024-04-25T05:19:20.161Z,91.000000
2024-04-25T05:20:20.339Z,91.000000
2024-04-25T05:21:19.755Z,91.000000
2024-04-25T05:22:19.823Z,91.000000
2024-04-25T05:23:19.870Z,91.000000
2024-04-25T05:24:19.955Z,91.000000
2024-04-25T05:25:19.871Z,91.000000
2024-04-25T05:26:20.041Z,91.000000
2024-04-25T05:27:20.125Z,91.000000
2024-04-25T05:28:20.157Z,91.000000
2024-04-25T05:29:20.202Z,92.000000
2024-04-25T05:30:20.163Z,92.000000
2024-04-25T05:31:20.194Z,91.000000
2024-04-25T05:32:20.316Z,91.000000
2024-04-25T05:33:20.068Z,91.000000
2024-04-25T05:34:20.440Z,91.000000
2024-04-25T05:35:19.976Z,91.000000
2024-04-25T05:36:19.929Z,91.000000
2024-04-25T05:37:19.952Z,91.000000
2024-04-25T05:38:29.779Z,91.000000
2024-04-25T05:39:19.818Z,91.000000
2024-04-25T05:40:19.877Z,91.000000
2024-04-25T05:41:19.976Z,91.000000
2024-04-25T05:42:20.005Z,91.000000
2024-04-25T05:43:20.058Z,91.000000
2024-04-25T05:44:20.068Z,91.000000
2024-04-25T05:45:20.101Z,91.000000
2024-04-25T05:46:20.224Z,91.000000
2024-04-25T05:47:20.293Z,91.000000
2024-04-25T05:48:20.348Z,91.000000
2024-04-25T05:49:20.289Z,91.000000
2024-04-25T05:50:19.935Z,91.000000
2024-04-25T05:51:19.802Z,91.000000
2024-04-25T05:52:18.361Z,92.000000
2024-04-25T05:53:19.962Z,92.000000
2024-04-25T05:54:20.047Z,92.000000
2024-04-25T05:55:20.525Z,92.000000
2024-04-25T05:56:20.188Z,92.000000
2024-04-25T05:57:20.133Z,91.000000
2024-04-25T05:58:20.196Z,91.000000
2024-04-25T05:59:20.242Z,92.000000
2024-04-25T06:00:20.266Z,92.000000
2024-04-25T06:01:18.424Z,92.000000
2024-04-25T06:02:19.838Z,91.000000
2024-04-25T06:03:19.884Z,91.000000
2024-04-25T06:04:20.088Z,91.000000
2024-04-25T06:05:19.989Z,91.000000
2024-04-25T06:06:20.668Z,91.000000
2024-04-25T06:07:20.565Z,91.000000
2024-04-25T06:08:20.166Z,91.000000
2024-04-25T06:09:20.178Z,91.000000
2024-04-25T06:10:20.781Z,91.000000
2024-04-25T06:11:20.330Z,91.000000
2024-04-25T06:12:20.791Z,91.000000
2024-04-25T06:13:19.854Z,91.000000
2024-04-25T06:14:18.442Z,91.000000
2024-04-25T06:15:19.940Z,91.000000
2024-04-25T06:16:20.051Z,91.000000
2024-04-25T06:17:20.145Z,91.000000
2024-04-25T06:18:20.314Z,91.000000
2024-04-25T06:19:20.144Z,91.000000
2024-04-25T06:20:20.895Z,91.000000
2024-04-25T06:21:20.168Z,91.000000
2024-04-25T06:22:20.274Z,90.000000
2024-04-25T06:23:20.400Z,90.000000
2024-04-25T06:24:20.386Z,90.000000
2024-04-25T06:25:19.887Z,90.000000
2024-04-25T06:26:19.937Z,90.000000
2024-04-25T06:27:19.976Z,89.000000
2024-04-25T06:28:20.024Z,89.000000
2024-04-25T06:29:20.112Z,89.000000
2024-04-25T06:30:20.175Z,88.000000
2024-04-25T06:31:20.218Z,88.000000
2024-04-25T06:32:20.360Z,88.000000
2024-04-25T06:33:20.250Z,88.000000
2024-04-25T06:34:20.307Z,88.000000
2024-04-25T06:35:18.450Z,88.000000
2024-04-25T06:36:20.334Z,88.000000
2024-04-25T06:37:20.006Z,87.000000
2024-04-25T06:38:20.128Z,87.000000
2024-04-25T06:39:20.088Z,85.000000
2024-04-25T06:40:20.142Z,85.000000
2024-04-25T06:41:20.137Z,84.000000
2024-04-25T06:42:20.143Z,84.000000
2024-04-25T06:43:20.176Z,83.000000
2024-04-25T06:44:29.037Z,82.000000
2024-04-25T06:45:18.957Z,81.000000
2024-04-25T06:46:20.336Z,80.000000
2024-04-25T06:47:18.416Z,80.000000
2024-04-25T06:48:18.574Z,79.000000
2024-04-25T06:49:20.083Z,78.000000
2024-04-25T06:50:20.048Z,77.000000
2024-04-25T06:51:20.075Z,76.000000
2024-04-25T06:52:20.133Z,74.000000
2024-04-25T06:53:20.158Z,74.000000
2024-04-25T06:54:20.223Z,73.000000
2024-04-25T06:55:20.216Z,72.000000
2024-04-25T06:56:20.375Z,72.000000
2024-04-25T06:57:18.393Z,71.000000
2024-04-25T06:58:18.468Z,71.000000
2024-04-25T06:59:18.396Z,70.000000
2024-04-25T07:00:20.503Z,71.000000
2024-04-25T07:01:20.111Z,71.000000
2024-04-25T07:02:18.948Z,70.000000
2024-04-25T07:03:20.200Z,70.000000
2024-04-25T07:04:20.198Z,70.000000
2024-04-25T07:05:20.183Z,71.000000
2024-04-25T07:06:20.236Z,70.000000
2024-04-25T07:07:20.289Z,69.000000
2024-04-25T07:08:18.615Z,67.000000
2024-04-25T07:09:20.359Z,67.000000
2024-04-25T07:10:18.912Z,67.000000
2024-04-25T07:11:18.547Z,68.000000
2024-04-25T07:12:18.537Z,68.000000
2024-04-25T07:13:20.108Z,68.000000
2024-04-25T07:14:18.577Z,69.000000
2024-04-25T07:15:20.122Z,67.000000
2024-04-25T07:16:20.411Z,67.000000
2024-04-25T07:17:20.347Z,66.000000
2024-04-25T07:18:20.339Z,67.000000
2024-04-25T07:19:20.341Z,67.000000
2024-04-25T07:20:19.358Z,66.000000
2024-04-25T07:21:18.404Z,66.000000
2024-04-25T07:22:18.588Z,66.000000
2024-04-25T07:23:20.191Z,64.000000
2024-04-25T07:24:20.032Z,65.000000
2024-04-25T07:25:20.020Z,64.000000
2024-04-25T07:26:18.681Z,66.000000
2024-04-25T07:27:20.107Z,67.000000
2024-04-25T07:28:20.272Z,67.000000
2024-04-25T07:29:20.922Z,67.000000
2024-04-25T07:30:20.339Z,67.000000
2024-04-25T07:31:18.383Z,65.000000
2024-04-25T07:32:18.853Z,65.000000
2024-04-25T07:33:18.740Z,65.000000
2024-04-25T07:34:18.450Z,65.000000
2024-04-25T07:35:18.554Z,64.000000
2024-04-25T07:36:20.132Z,65.000000
2024-04-25T07:37:20.131Z,66.000000
2024-04-25T07:38:18.738Z,67.000000
2024-04-25T07:39:21.737Z,67.000000
2024-04-25T07:40:20.468Z,67.000000
2024-04-25T07:41:21.018Z,67.000000
2024-04-25T07:42:20.343Z,68.000000
2024-04-25T07:43:18.442Z,68.000000
2024-04-25T07:44:18.604Z,67.000000
2024-04-25T07:45:18.943Z,66.000000
2024-04-25T07:46:18.533Z,65.000000
2024-04-25T07:47:18.629Z,66.000000
2024-04-25T07:48:20.254Z,66.000000
2024-04-25T07:49:20.204Z,66.000000
2024-04-25T07:50:20.256Z,65.000000
2024-04-25T07:51:20.315Z,64.000000
2024-04-25T07:52:20.264Z,65.000000
2024-04-25T07:53:20.447Z,64.000000
2024-04-25T07:54:19.133Z,65.000000
2024-04-25T07:55:18.468Z,64.000000
2024-04-25T07:56:18.641Z,64.000000
2024-04-25T07:57:18.516Z,63.000000
2024-04-25T07:58:20.068Z,63.000000
2024-04-25T07:59:20.692Z,62.000000
2024-04-25T08:00:20.197Z,62.000000
2024-04-25T08:01:20.183Z,62.000000
2024-04-25T08:02:20.441Z,63.000000
2024-04-25T08:03:20.590Z,65.000000
2024-04-25T08:04:18.457Z,66.000000
2024-04-25T08:05:18.518Z,64.000000
2024-04-25T08:06:18.538Z,64.000000
2024-04-25T08:07:18.617Z,64.000000
2024-04-25T08:08:20.090Z,64.000000
2024-04-25T08:09:18.495Z,65.000000
2024-04-25T08:10:18.594Z,64.000000
2024-04-25T08:11:20.834Z,66.000000
2024-04-25T08:12:20.375Z,64.000000
2024-04-25T08:13:20.285Z,65.000000
2024-04-25T08:14:20.365Z,65.000000
2024-04-25T08:15:20.269Z,66.000000
2024-04-25T08:16:20.476Z,63.000000
2024-04-25T08:17:18.534Z,62.000000
2024-04-25T08:18:18.533Z,65.000000
2024-04-25T08:19:18.509Z,64.000000
2024-04-25T08:20:18.558Z,65.000000
2024-04-25T08:21:18.618Z,63.000000
2024-04-25T08:22:20.174Z,60.000000
2024-04-25T08:23:18.516Z,62.000000
2024-04-25T08:24:18.592Z,62.000000
2024-04-25T08:25:18.572Z,63.000000
2024-04-25T08:26:18.678Z,62.000000
2024-04-25T08:27:20.145Z,62.000000
2024-04-25T08:28:20.202Z,59.000000
2024-04-25T08:29:20.274Z,63.000000
2024-04-25T08:30:20.268Z,64.000000
2024-04-25T08:31:18.847Z,64.000000
2024-04-25T08:32:21.258Z,60.000000
2024-04-25T08:33:18.532Z,63.000000
2024-04-25T08:34:18.585Z,63.000000
2024-04-25T08:35:18.479Z,61.000000
2024-04-25T08:36:18.570Z,63.000000
2024-04-25T08:37:18.602Z,62.000000
2024-04-25T08:38:18.658Z,61.000000
2024-04-25T08:39:18.769Z,59.000000
2024-04-25T08:40:20.217Z,61.000000
2024-04-25T08:41:20.328Z,62.000000
2024-04-25T08:42:20.300Z,62.000000
2024-04-25T08:43:18.875Z,63.000000
2024-04-25T08:44:18.962Z,64.000000
2024-04-25T08:45:18.489Z,64.000000
2024-04-25T08:46:18.782Z,63.000000
2024-04-25T08:47:18.638Z,64.000000
2024-04-25T08:48:18.704Z,64.000000
2024-04-25T08:49:18.660Z,63.000000
2024-04-25T08:50:18.847Z,62.000000
2024-04-25T08:51:20.182Z,64.000000
2024-04-25T08:52:20.286Z,63.000000
2024-04-25T08:53:20.264Z,61.000000
2024-04-25T08:54:20.367Z,63.000000
2024-04-25T08:55:19.525Z,67.000000
2024-04-25T08:56:18.605Z,63.000000
2024-04-25T08:57:18.584Z,62.000000
2024-04-25T08:58:19.423Z,63.000000
2024-04-25T08:59:18.645Z,63.000000
2024-04-25T09:00:18.608Z,63.000000
2024-04-25T09:01:18.774Z,62.000000
2024-04-25T09:02:20.222Z,63.000000
2024-04-25T09:03:20.472Z,63.000000
2024-04-25T09:04:20.358Z,61.000000
2024-04-25T09:05:20.415Z,62.000000
2024-04-25T09:06:18.584Z,63.000000
2024-04-25T09:07:18.448Z,65.000000
2024-04-25T09:08:18.550Z,66.000000
2024-04-25T09:09:18.503Z,63.000000
2024-04-25T09:10:18.602Z,61.000000
2024-04-25T09:11:18.635Z,61.000000
2024-04-25T09:12:19.037Z,60.000000
2024-04-25T09:13:20.670Z,61.000000
2024-04-25T09:14:20.329Z,63.000000
2024-04-25T09:15:20.264Z,66.000000
2024-04-25T09:16:20.446Z,63.000000
2024-04-25T09:17:20.391Z,62.000000
2024-04-25T09:18:18.601Z,61.000000
2024-04-25T09:19:18.641Z,60.000000
2024-04-25T09:20:19.962Z,63.000000
2024-04-25T09:21:18.579Z,62.000000
2024-04-25T09:22:18.665Z,60.000000
2024-04-25T09:23:18.744Z,59.000000
2024-04-25T09:24:18.659Z,60.000000
2024-04-25T09:25:19.291Z,59.000000
2024-04-25T09:26:20.327Z,64.000000
2024-04-25T09:27:20.317Z,59.000000
2024-04-25T09:28:20.380Z,60.000000
2024-04-25T09:29:18.603Z,58.000000
2024-04-25T09:30:18.485Z,56.000000
2024-04-25T09:31:18.623Z,59.000000
2024-04-25T09:32:18.580Z,60.000000
2024-04-25T09:33:18.785Z,59.000000
2024-04-25T09:34:18.718Z,57.000000
2024-04-25T09:35:18.657Z,57.000000
2024-04-25T09:36:18.760Z,59.000000
2024-04-25T09:37:20.272Z,59.000000
2024-04-25T09:38:18.902Z,58.000000
2024-04-25T09:39:18.572Z,58.000000
2024-04-25T09:40:18.400Z,60.000000
2024-04-25T09:41:18.510Z,57.000000
2024-04-25T09:42:18.471Z,59.000000
2024-04-25T09:43:18.650Z,60.000000
2024-04-25T09:44:18.595Z,59.000000
2024-04-25T09:45:18.652Z,59.000000
2024-04-25T09:46:18.770Z,60.000000
2024-04-25T09:47:18.749Z,61.000000
2024-04-25T09:48:18.821Z,64.000000
2024-04-25T09:49:18.799Z,61.000000
2024-04-25T09:50:18.341Z,61.000000
2024-04-25T09:51:20.929Z,60.000000
2024-04-25T09:52:18.471Z,60.000000
2024-04-25T09:53:18.508Z,58.000000
2024-04-25T09:54:18.486Z,60.000000
2024-04-25T09:55:18.582Z,62.000000
2024-04-25T09:56:18.704Z,60.000000
2024-04-25T09:57:18.667Z,58.000000
2024-04-25T09:58:18.709Z,59.000000
2024-04-25T09:59:19.541Z,63.000000
2024-04-25T10:00:18.863Z,61.000000
2024-04-25T10:01:18.842Z,62.000000
2024-04-25T10:02:18.488Z,61.000000
2024-04-25T10:03:18.450Z,60.000000
2024-04-25T10:04:18.690Z,56.000000
2024-04-25T10:05:18.597Z,60.000000
2024-04-25T10:06:18.654Z,62.000000
2024-04-25T10:07:18.640Z,63.000000
2024-04-25T10:08:18.709Z,59.000000
2024-04-25T10:09:18.721Z,61.000000
2024-04-25T10:10:18.804Z,57.000000
2024-04-25T10:11:18.866Z,65.000000
2024-04-25T10:12:20.325Z,62.000000
2024-04-25T10:13:19.709Z,57.000000
2024-04-25T10:14:18.527Z,60.000000
2024-04-25T10:15:18.435Z,56.000000
2024-04-25T10:16:18.630Z,62.000000
2024-04-25T10:17:18.833Z,58.000000
2024-04-25T10:18:18.699Z,62.000000
2024-04-25T10:19:18.751Z,57.000000
2024-04-25T10:20:18.769Z,58.000000
2024-04-25T10:21:18.713Z,55.000000
2024-04-25T10:22:18.814Z,57.000000
2024-04-25T10:23:18.873Z,58.000000
2024-04-25T10:24:18.870Z,56.000000
2024-04-25T10:25:18.386Z,56.000000
2024-04-25T10:26:18.493Z,58.000000
2024-04-25T10:27:18.506Z,58.000000
2024-04-25T10:28:18.528Z,58.000000
2024-04-25T10:29:19.557Z,55.000000
2024-04-25T10:30:18.568Z,59.000000
2024-04-25T10:31:19.052Z,55.000000
2024-04-25T10:32:18.858Z,55.000000
2024-04-25T10:33:18.815Z,58.000000
2024-04-25T10:34:18.787Z,60.000000
2024-04-25T10:35:18.884Z,55.000000
2024-04-25T10:36:18.361Z,58.000000
2024-04-25T10:37:18.431Z,60.000000
2024-04-25T10:38:18.577Z,57.000000
2024-04-25T10:39:18.873Z,55.000000
2024-04-25T10:40:18.697Z,53.000000
2024-04-25T10:41:19.144Z,56.000000
2024-04-25T10:42:19.072Z,56.000000
2024-04-25T10:43:19.038Z,56.000000
2024-04-25T10:44:18.783Z,58.000000
2024-04-25T10:45:18.956Z,56.000000
2024-04-25T10:46:18.881Z,62.000000
2024-04-25T10:47:19.110Z,59.000000
2024-04-25T10:48:19.057Z,57.000000
2024-04-25T10:49:18.761Z,59.000000
2024-04-25T10:50:18.641Z,55.000000
2024-04-25T10:51:18.681Z,54.000000
2024-04-25T10:52:18.584Z,58.000000
2024-04-25T10:53:18.675Z,58.000000
2024-04-25T10:54:18.760Z,58.000000
2024-04-25T10:55:18.713Z,59.000000
2024-04-25T10:56:20.244Z,56.000000
2024-04-25T10:57:18.898Z,61.000000
2024-04-25T10:58:18.879Z,57.000000
2024-04-25T10:59:18.548Z,55.000000
2024-04-25T11:00:18.605Z,57.000000
2024-04-25T11:01:18.503Z,57.000000
2024-04-25T11:02:18.807Z,55.000000
2024-04-25T11:03:18.662Z,55.000000
2024-04-25T11:04:18.778Z,57.000000
2024-04-25T11:05:19.260Z,57.000000
2024-04-25T11:06:18.906Z,57.000000
2024-04-25T11:07:18.826Z,55.000000
2024-04-25T11:08:18.855Z,56.000000
2024-04-25T11:09:18.982Z,57.000000
2024-04-25T11:10:19.054Z,60.000000
2024-04-25T11:11:18.525Z,58.000000
2024-04-25T11:12:18.546Z,58.000000
2024-04-25T11:13:18.587Z,57.000000
2024-04-25T11:14:18.583Z,59.000000
2024-04-25T11:15:19.029Z,58.000000
2024-04-25T11:16:18.828Z,59.000000
2024-04-25T11:17:18.673Z,59.000000
2024-04-25T11:18:25.392Z,60.000000
2024-04-25T11:19:23.424Z,60.000000
2024-04-25T11:20:19.310Z,57.000000
2024-04-25T11:21:19.365Z,61.000000
2024-04-25T11:22:35.980Z,59.000000
2024-04-25T11:23:18.780Z,60.000000
2024-04-25T11:24:18.667Z,59.000000